sensor_id;sensor_type;location;lat;lon;timestamp;pressure;altitude;pressure_sealevel;temperature;humidity
38466;BME280;24244;51.950;5.902;2022-12-26T00:00:51;100883.94;;;10.37;92.23
38466;BME280;24244;51.950;5.902;2022-12-26T00:03:18;100880.44;;;10.37;92.18
38466;BME280;24244;51.950;5.902;2022-12-26T00:05:46;100883.94;;;10.37;92.00
38466;BME280;24244;51.950;5.902;2022-12-26T00:08:12;100879.41;;;10.38;92.31
38466;BME280;24244;51.950;5.902;2022-12-26T00:10:39;100877.59;;;10.38;92.24
38466;BME280;24244;51.950;5.902;2022-12-26T00:13:08;100886.38;;;10.39;92.37
38466;BME280;24244;51.950;5.902;2022-12-26T00:15:55;100884.56;;;10.39;92.10
38466;BME280;24244;51.950;5.902;2022-12-26T00:18:21;100888.22;;;10.38;92.43
38466;BME280;24244;51.950;5.902;2022-12-26T00:20:48;100881.91;;;10.39;92.33
38466;BME280;24244;51.950;5.902;2022-12-26T00:23:15;100881.72;;;10.41;92.51
38466;BME280;24244;51.950;5.902;2022-12-26T00:25:42;100879.72;;;10.43;92.51
38466;BME280;24244;51.950;5.902;2022-12-26T00:28:12;100884.88;;;10.44;92.47
38466;BME280;24244;51.950;5.902;2022-12-26T00:30:38;100883.00;;;10.45;92.36
38466;BME280;24244;51.950;5.902;2022-12-26T00:33:05;100882.81;;;10.46;92.31
38466;BME280;24244;51.950;5.902;2022-12-26T00:35:32;100890.63;;;10.48;92.36
38466;BME280;24244;51.950;5.902;2022-12-26T00:37:59;100880.81;;;10.48;92.11
38466;BME280;24244;51.950;5.902;2022-12-26T00:40:26;100879.81;;;10.49;92.30
38466;BME280;24244;51.950;5.902;2022-12-26T00:42:53;100893.94;;;10.50;92.13
38466;BME280;24244;51.950;5.902;2022-12-26T00:45:21;100896.59;;;10.50;92.18
38466;BME280;24244;51.950;5.902;2022-12-26T00:47:48;100903.72;;;10.49;92.19
38466;BME280;24244;51.950;5.902;2022-12-26T00:50:15;100911.72;;;10.49;92.29
38466;BME280;24244;51.950;5.902;2022-12-26T00:52:42;100905.56;;;10.49;92.29
38466;BME280;24244;51.950;5.902;2022-12-26T00:55:08;100903.09;;;10.47;92.53
38466;BME280;24244;51.950;5.902;2022-12-26T00:57:35;100897.75;;;10.47;92.45
38466;BME280;24244;51.950;5.902;2022-12-26T01:00:02;100903.09;;;10.47;92.31
38466;BME280;24244;51.950;5.902;2022-12-26T01:02:31;100907.41;;;10.48;92.35
38466;BME280;24244;51.950;5.902;2022-12-26T01:05:04;100925.16;;;10.48;92.65
38466;BME280;24244;51.950;5.902;2022-12-26T01:07:32;100926.16;;;10.47;92.66
38466;BME280;24244;51.950;5.902;2022-12-26T01:10:25;100924.72;;;10.44;92.59
38466;BME280;24244;51.950;5.902;2022-12-26T01:12:52;100931.66;;;10.45;92.70
38466;BME280;24244;51.950;5.902;2022-12-26T01:15:19;100918.38;;;10.45;93.00
38466;BME280;24244;51.950;5.902;2022-12-26T01:17:47;100926.34;;;10.45;93.03
38466;BME280;24244;51.950;5.902;2022-12-26T01:20:14;100924.50;;;10.46;93.01
38466;BME280;24244;51.950;5.902;2022-12-26T01:22:41;100928.19;;;10.45;93.04
38466;BME280;24244;51.950;5.902;2022-12-26T01:25:09;100936.16;;;10.45;92.74
38466;BME280;24244;51.950;5.902;2022-12-26T01:27:36;100942.28;;;10.45;93.03
38466;BME280;24244;51.950;5.902;2022-12-26T01:30:04;100931.50;;;10.47;93.20
38466;BME280;24244;51.950;5.902;2022-12-26T01:32:31;100941.28;;;10.46;93.01
38466;BME280;24244;51.950;5.902;2022-12-26T01:34:59;100931.31;;;10.48;92.73
38466;BME280;24244;51.950;5.902;2022-12-26T01:37:26;100931.31;;;10.48;92.94
38466;BME280;24244;51.950;5.902;2022-12-26T01:39:53;100922.50;;;10.48;93.04
38466;BME280;24244;51.950;5.902;2022-12-26T01:42:23;100918.84;;;10.49;92.53
38466;BME280;24244;51.950;5.902;2022-12-26T01:45:00;100925.81;;;10.50;92.74
38466;BME280;24244;51.950;5.902;2022-12-26T01:47:40;100927.47;;;10.51;92.93
38466;BME280;24244;51.950;5.902;2022-12-26T01:50:26;100912.53;;;10.50;92.80
38466;BME280;24244;51.950;5.902;2022-12-26T01:52:55;100908.03;;;10.50;93.04
38466;BME280;24244;51.950;5.902;2022-12-26T01:55:25;100917.84;;;10.50;92.91
38466;BME280;24244;51.950;5.902;2022-12-26T01:57:57;100920.50;;;10.50;92.79
38466;BME280;24244;51.950;5.902;2022-12-26T02:00:25;100918.69;;;10.50;92.95
38466;BME280;24244;51.950;5.902;2022-12-26T02:02:53;100918.84;;;10.49;92.99
38466;BME280;24244;51.950;5.902;2022-12-26T02:05:40;100920.69;;;10.48;92.80
38466;BME280;24244;51.950;5.902;2022-12-26T02:08:10;100919.03;;;10.47;92.67
38466;BME280;24244;51.950;5.902;2022-12-26T02:10:47;100929.47;;;10.49;92.77
38466;BME280;24244;51.950;5.902;2022-12-26T02:13:44;100932.13;;;10.49;92.64
38466;BME280;24244;51.950;5.902;2022-12-26T02:16:14;100927.00;;;10.47;92.67
38466;BME280;24244;51.950;5.902;2022-12-26T02:18:41;100928.00;;;10.46;93.00
38466;BME280;24244;51.950;5.902;2022-12-26T02:21:35;100919.19;;;10.46;92.63
38466;BME280;24244;51.950;5.902;2022-12-26T02:27:23;100931.03;;;10.43;92.86
38466;BME280;24244;51.950;5.902;2022-12-26T02:30:24;100936.34;;;10.43;93.04
38466;BME280;24244;51.950;5.902;2022-12-26T02:35:59;100935.69;;;10.41;92.72
38466;BME280;24244;51.950;5.902;2022-12-26T02:38:35;100919.94;;;10.40;92.96
38466;BME280;24244;51.950;5.902;2022-12-26T02:41:19;100926.25;;;10.39;92.91
38466;BME280;24244;51.950;5.902;2022-12-26T02:43:59;100925.41;;;10.38;93.12
38466;BME280;24244;51.950;5.902;2022-12-26T02:46:56;100922.13;;;10.36;92.93
38466;BME280;24244;51.950;5.902;2022-12-26T02:49:39;100935.44;;;10.36;93.01
38466;BME280;24244;51.950;5.902;2022-12-26T02:52:54;100928.44;;;10.35;93.19
38466;BME280;24244;51.950;5.902;2022-12-26T02:55:46;100936.59;;;10.34;93.13
38466;BME280;24244;51.950;5.902;2022-12-26T02:58:38;100939.09;;;10.35;93.09
38466;BME280;24244;51.950;5.902;2022-12-26T03:01:30;100944.56;;;10.34;93.21
38466;BME280;24244;51.950;5.902;2022-12-26T03:04:37;100946.22;;;10.35;93.02
38466;BME280;24244;51.950;5.902;2022-12-26T03:07:26;100929.63;;;10.33;93.05
38466;BME280;24244;51.950;5.902;2022-12-26T03:10:33;100931.47;;;10.32;93.05
38466;BME280;24244;51.950;5.902;2022-12-26T03:13:24;100930.63;;;10.32;92.96
38466;BME280;24244;51.950;5.902;2022-12-26T03:15:55;100922.03;;;10.30;93.23
38466;BME280;24244;51.950;5.902;2022-12-26T03:18:43;100938.97;;;10.29;93.02
38466;BME280;24244;51.950;5.902;2022-12-26T03:21:28;100940.81;;;10.28;93.14
38466;BME280;24244;51.950;5.902;2022-12-26T03:23:56;100929.34;;;10.28;93.20
38466;BME280;24244;51.950;5.902;2022-12-26T03:26:26;100932.19;;;10.26;93.23
38466;BME280;24244;51.950;5.902;2022-12-26T03:29:07;100932.19;;;10.26;93.11
38466;BME280;24244;51.950;5.902;2022-12-26T03:31:53;100927.22;;;10.23;93.20
38466;BME280;24244;51.950;5.902;2022-12-26T03:34:20;100929.88;;;10.23;92.91
38466;BME280;24244;51.950;5.902;2022-12-26T03:37:12;100929.25;;;10.21;93.00
38466;BME280;24244;51.950;5.902;2022-12-26T03:39:51;100934.72;;;10.19;93.14
38466;BME280;24244;51.950;5.902;2022-12-26T03:42:46;100936.56;;;10.19;93.32
38466;BME280;24244;51.950;5.902;2022-12-26T03:45:43;100928.59;;;10.19;93.14
38466;BME280;24244;51.950;5.902;2022-12-26T03:48:38;100931.41;;;10.17;93.12
38466;BME280;24244;51.950;5.902;2022-12-26T03:51:31;100929.72;;;10.16;92.96
38466;BME280;24244;51.950;5.902;2022-12-26T03:54:23;100932.59;;;10.15;92.98
38466;BME280;24244;51.950;5.902;2022-12-26T03:57:13;100936.88;;;10.16;93.06
38466;BME280;24244;51.950;5.902;2022-12-26T04:00:04;100937.69;;;10.16;93.00
38466;BME280;24244;51.950;5.902;2022-12-26T04:02:52;100947.34;;;10.17;93.35
38466;BME280;24244;51.950;5.902;2022-12-26T04:05:40;100946.53;;;10.17;93.02
38466;BME280;24244;51.950;5.902;2022-12-26T04:08:30;100958.81;;;10.18;93.25
38466;BME280;24244;51.950;5.902;2022-12-26T04:11:21;100958.94;;;10.16;93.36
38466;BME280;24244;51.950;5.902;2022-12-26T04:14:11;100957.31;;;10.15;93.33
38466;BME280;24244;51.950;5.902;2022-12-26T04:17:04;100965.94;;;10.17;93.01
38466;BME280;24244;51.950;5.902;2022-12-26T04:19:59;100963.13;;;10.19;93.15
38466;BME280;24244;51.950;5.902;2022-12-26T04:22:36;100958.81;;;10.18;93.39
38466;BME280;24244;51.950;5.902;2022-12-26T04:25:25;100959.63;;;10.18;93.25
38466;BME280;24244;51.950;5.902;2022-12-26T04:28:18;100964.78;;;10.20;93.02
38466;BME280;24244;51.950;5.902;2022-12-26T04:31:08;100980.72;;;10.20;93.08
38466;BME280;24244;51.950;5.902;2022-12-26T04:33:59;100984.22;;;10.20;93.08
38466;BME280;24244;51.950;5.902;2022-12-26T04:36:51;101001.16;;;10.19;93.09
38466;BME280;24244;51.950;5.902;2022-12-26T04:39:40;100993.16;;;10.19;93.42
38466;BME280;24244;51.950;5.902;2022-12-26T04:42:29;100993.00;;;10.21;93.44
38466;BME280;24244;51.950;5.902;2022-12-26T04:45:18;100990.34;;;10.21;93.25
38466;BME280;24244;51.950;5.902;2022-12-26T04:47:46;100977.06;;;10.21;93.33
38466;BME280;24244;51.950;5.902;2022-12-26T04:50:31;100975.25;;;10.22;93.38
38466;BME280;24244;51.950;5.902;2022-12-26T04:52:58;100972.38;;;10.23;93.26
38466;BME280;24244;51.950;5.902;2022-12-26T04:55:27;100974.25;;;10.23;93.22
38466;BME280;24244;51.950;5.902;2022-12-26T04:57:57;100966.06;;;10.24;93.35
38466;BME280;24244;51.950;5.902;2022-12-26T05:00:27;100968.91;;;10.23;92.97
38466;BME280;24244;51.950;5.902;2022-12-26T05:02:54;100964.59;;;10.22;93.27
38466;BME280;24244;51.950;5.902;2022-12-26T05:05:46;100952.31;;;10.20;93.24
38466;BME280;24244;51.950;5.902;2022-12-26T05:08:34;100945.34;;;10.19;93.23
38466;BME280;24244;51.950;5.902;2022-12-26T05:11:28;100945.53;;;10.18;93.21
38466;BME280;24244;51.950;5.902;2022-12-26T05:13:57;100937.56;;;10.18;93.08
38466;BME280;24244;51.950;5.902;2022-12-26T05:16:26;100928.75;;;10.17;93.16
38466;BME280;24244;51.950;5.902;2022-12-26T05:19:16;100937.69;;;10.16;93.18
38466;BME280;24244;51.950;5.902;2022-12-26T05:22:03;100939.91;;;10.13;93.15
38466;BME280;24244;51.950;5.902;2022-12-26T05:24:49;100946.38;;;10.10;93.29
38466;BME280;24244;51.950;5.902;2022-12-26T05:27:37;100946.38;;;10.10;93.15
38466;BME280;24244;51.950;5.902;2022-12-26T05:30:27;100946.56;;;10.09;93.39
38466;BME280;24244;51.950;5.902;2022-12-26T05:32:55;100951.06;;;10.08;93.13
38466;BME280;24244;51.950;5.902;2022-12-26T05:35:41;100946.56;;;10.09;93.13
38466;BME280;24244;51.950;5.902;2022-12-26T05:38:08;100945.94;;;10.07;93.35
38466;BME280;24244;51.950;5.902;2022-12-26T05:40:36;100950.41;;;10.06;93.14
38466;BME280;24244;51.950;5.902;2022-12-26T05:43:03;100946.94;;;10.06;93.46
38466;BME280;24244;51.950;5.902;2022-12-26T05:45:32;100956.91;;;10.04;93.05
38466;BME280;24244;51.950;5.902;2022-12-26T05:48:00;100947.28;;;10.03;93.28
38466;BME280;24244;51.950;5.902;2022-12-26T05:50:27;100946.66;;;10.01;93.03
38466;BME280;24244;51.950;5.902;2022-12-26T05:52:56;100955.63;;;10.00;93.27
38466;BME280;24244;51.950;5.902;2022-12-26T05:55:23;100951.31;;;9.99;93.12
38466;BME280;24244;51.950;5.902;2022-12-26T05:57:51;100949.47;;;9.99;93.08
38466;BME280;24244;51.950;5.902;2022-12-26T06:00:18;100939.03;;;9.98;93.14
38466;BME280;24244;51.950;5.902;2022-12-26T06:02:45;100936.72;;;9.95;92.98
38466;BME280;24244;51.950;5.902;2022-12-26T06:05:13;100928.75;;;9.95;93.21
38466;BME280;24244;51.950;5.902;2022-12-26T06:07:41;100917.50;;;9.93;93.08
38466;BME280;24244;51.950;5.902;2022-12-26T06:10:08;100915.84;;;9.92;93.11
38466;BME280;24244;51.950;5.902;2022-12-26T06:12:36;100915.03;;;9.91;93.07
38466;BME280;24244;51.950;5.902;2022-12-26T06:15:03;100922.16;;;9.91;92.98
38466;BME280;24244;51.950;5.902;2022-12-26T06:17:30;100921.31;;;9.90;92.84
38466;BME280;24244;51.950;5.902;2022-12-26T06:19:57;100935.78;;;9.88;92.96
38466;BME280;24244;51.950;5.902;2022-12-26T06:22:27;100942.13;;;9.87;93.04
38466;BME280;24244;51.950;5.902;2022-12-26T06:24:54;100939.47;;;9.87;92.90
38466;BME280;24244;51.950;5.902;2022-12-26T06:27:21;100936.81;;;9.87;93.07
38466;BME280;24244;51.950;5.902;2022-12-26T06:29:51;100929.84;;;9.86;92.99
38466;BME280;24244;51.950;5.902;2022-12-26T06:32:17;100930.00;;;9.84;93.16
38466;BME280;24244;51.950;5.902;2022-12-26T06:34:46;100938.13;;;9.82;93.06
38466;BME280;24244;51.950;5.902;2022-12-26T06:37:13;100942.78;;;9.80;93.05
38466;BME280;24244;51.950;5.902;2022-12-26T06:39:41;100939.34;;;9.80;93.10
38466;BME280;24244;51.950;5.902;2022-12-26T06:42:08;100947.47;;;9.78;92.83
38466;BME280;24244;51.950;5.902;2022-12-26T06:44:35;100959.09;;;9.77;93.16
38466;BME280;24244;51.950;5.902;2022-12-26T06:47:01;100950.47;;;9.75;92.99
38466;BME280;24244;51.950;5.902;2022-12-26T06:49:30;100963.91;;;9.74;92.90
38466;BME280;24244;51.950;5.902;2022-12-26T06:51:58;100963.91;;;9.74;92.96
38466;BME280;24244;51.950;5.902;2022-12-26T06:54:25;100973.69;;;9.73;93.22
38466;BME280;24244;51.950;5.902;2022-12-26T06:56:53;100982.69;;;9.72;93.00
38466;BME280;24244;51.950;5.902;2022-12-26T06:59:20;100977.56;;;9.71;92.82
38466;BME280;24244;51.950;5.902;2022-12-26T07:01:48;100985.50;;;9.71;93.03
38466;BME280;24244;51.950;5.902;2022-12-26T07:04:17;100977.72;;;9.69;92.95
38466;BME280;24244;51.950;5.902;2022-12-26T07:06:46;100982.19;;;9.69;93.15
38466;BME280;24244;51.950;5.902;2022-12-26T07:09:16;100981.38;;;9.68;93.16
38466;BME280;24244;51.950;5.902;2022-12-26T07:11:45;100981.53;;;9.67;93.06
38466;BME280;24244;51.950;5.902;2022-12-26T07:14:13;100978.88;;;9.67;93.13
38466;BME280;24244;51.950;5.902;2022-12-26T07:16:42;100983.38;;;9.66;92.83
38466;BME280;24244;51.950;5.902;2022-12-26T07:19:12;100979.09;;;9.65;93.10
38466;BME280;24244;51.950;5.902;2022-12-26T07:21:40;100986.38;;;9.63;92.82
38466;BME280;24244;51.950;5.902;2022-12-26T07:24:13;100984.72;;;9.62;92.90
38466;BME280;24244;51.950;5.902;2022-12-26T07:26:40;100982.91;;;9.63;92.72
38466;BME280;24244;51.950;5.902;2022-12-26T07:29:09;100994.50;;;9.62;93.09
38466;BME280;24244;51.950;5.902;2022-12-26T07:31:38;101003.31;;;9.62;92.98
38466;BME280;24244;51.950;5.902;2022-12-26T07:34:05;100999.16;;;9.60;93.01
38466;BME280;24244;51.950;5.902;2022-12-26T07:36:32;101014.25;;;9.59;92.80
38466;BME280;24244;51.950;5.902;2022-12-26T07:39:00;101003.63;;;9.59;92.90
38466;BME280;24244;51.950;5.902;2022-12-26T07:41:27;101007.94;;;9.60;92.84
38466;BME280;24244;51.950;5.902;2022-12-26T07:44:16;101000.19;;;9.59;92.94
38466;BME280;24244;51.950;5.902;2022-12-26T07:46:44;100990.56;;;9.58;92.92
38466;BME280;24244;51.950;5.902;2022-12-26T07:49:12;100977.31;;;9.58;92.77
38466;BME280;24244;51.950;5.902;2022-12-26T07:51:40;100973.00;;;9.57;93.18
38466;BME280;24244;51.950;5.902;2022-12-26T07:54:07;100988.09;;;9.56;93.30
38466;BME280;24244;51.950;5.902;2022-12-26T07:56:37;100982.78;;;9.56;93.22
38466;BME280;24244;51.950;5.902;2022-12-26T07:59:04;100986.25;;;9.57;92.91
38466;BME280;24244;51.950;5.902;2022-12-26T08:01:31;100974.81;;;9.56;93.06
38466;BME280;24244;51.950;5.902;2022-12-26T08:03:59;100980.13;;;9.56;93.07
38466;BME280;24244;51.950;5.902;2022-12-26T08:06:26;100989.75;;;9.57;93.08
38466;BME280;24244;51.950;5.902;2022-12-26T08:08:54;100992.41;;;9.57;92.86
38466;BME280;24244;51.950;5.902;2022-12-26T08:11:22;100995.03;;;9.57;92.98
38466;BME280;24244;51.950;5.902;2022-12-26T08:13:49;101001.19;;;9.58;93.27
38466;BME280;24244;51.950;5.902;2022-12-26T08:16:19;100994.06;;;9.58;92.92
38466;BME280;24244;51.950;5.902;2022-12-26T08:18:46;100987.72;;;9.59;93.28
38466;BME280;24244;51.950;5.902;2022-12-26T08:21:14;100997.34;;;9.60;93.01
38466;BME280;24244;51.950;5.902;2022-12-26T08:23:43;100996.34;;;9.61;92.92
38466;BME280;24244;51.950;5.902;2022-12-26T08:26:12;101006.63;;;9.64;93.14
38466;BME280;24244;51.950;5.902;2022-12-26T08:28:39;101008.28;;;9.65;92.97
38466;BME280;24244;51.950;5.902;2022-12-26T08:31:06;101009.75;;;9.68;92.98
38466;BME280;24244;51.950;5.902;2022-12-26T08:33:37;101011.22;;;9.70;93.09
38466;BME280;24244;51.950;5.902;2022-12-26T08:36:05;101011.88;;;9.72;92.84
38466;BME280;24244;51.950;5.902;2022-12-26T08:38:34;101017.00;;;9.74;92.90
38466;BME280;24244;51.950;5.902;2022-12-26T08:41:01;101009.69;;;9.76;92.88
38466;BME280;24244;51.950;5.902;2022-12-26T08:43:28;100991.78;;;9.78;92.90
38466;BME280;24244;51.950;5.902;2022-12-26T08:46:17;100991.59;;;9.79;92.88
38466;BME280;24244;51.950;5.902;2022-12-26T08:48:49;100993.06;;;9.82;92.96
38466;BME280;24244;51.950;5.902;2022-12-26T08:51:17;100992.91;;;9.83;93.16
38466;BME280;24244;51.950;5.902;2022-12-26T08:53:48;100996.22;;;9.86;93.16
38466;BME280;24244;51.950;5.902;2022-12-26T08:56:16;100994.19;;;9.88;93.10
38466;BME280;24244;51.950;5.902;2022-12-26T08:58:44;101005.47;;;9.90;92.83
38466;BME280;24244;51.950;5.902;2022-12-26T09:01:13;100993.84;;;9.91;92.84
38466;BME280;24244;51.950;5.902;2022-12-26T09:03:43;101007.78;;;9.93;92.81
38466;BME280;24244;51.950;5.902;2022-12-26T09:06:14;101013.72;;;9.95;93.02
38466;BME280;24244;51.950;5.902;2022-12-26T09:08:41;101010.91;;;9.96;93.24
38466;BME280;24244;51.950;5.902;2022-12-26T09:11:12;101015.03;;;9.99;93.21
38466;BME280;24244;51.950;5.902;2022-12-26T09:13:41;101017.31;;;10.02;93.11
38466;BME280;24244;51.950;5.902;2022-12-26T09:16:10;101002.88;;;10.04;93.20
38466;BME280;24244;51.950;5.902;2022-12-26T09:18:37;101019.31;;;10.08;92.95
38466;BME280;24244;51.950;5.902;2022-12-26T09:21:12;101009.31;;;10.10;93.07
38466;BME280;24244;51.950;5.902;2022-12-26T09:23:42;101014.28;;;10.13;93.15
38466;BME280;24244;51.950;5.902;2022-12-26T09:26:14;101019.22;;;10.16;92.85
38466;BME280;24244;51.950;5.902;2022-12-26T09:28:42;101026.06;;;10.18;93.17
38466;BME280;24244;51.950;5.902;2022-12-26T09:31:11;101024.88;;;10.21;93.22
38466;BME280;24244;51.950;5.902;2022-12-26T09:33:39;101034.31;;;10.24;93.02
38466;BME280;24244;51.950;5.902;2022-12-26T09:36:09;101032.13;;;10.27;92.93
38466;BME280;24244;51.950;5.902;2022-12-26T09:38:40;101038.09;;;10.29;93.01
38466;BME280;24244;51.950;5.902;2022-12-26T09:41:19;101036.75;;;10.33;92.59
38466;BME280;24244;51.950;5.902;2022-12-26T09:44:00;101039.06;;;10.36;92.63
38466;BME280;24244;51.950;5.902;2022-12-26T09:46:32;101049.31;;;10.39;92.32
38466;BME280;24244;51.950;5.902;2022-12-26T09:49:05;101052.63;;;10.41;92.72
38466;BME280;24244;51.950;5.902;2022-12-26T09:51:34;101050.63;;;10.43;92.48
38466;BME280;24244;51.950;5.902;2022-12-26T09:54:05;101052.28;;;10.44;92.32
38466;BME280;24244;51.950;5.902;2022-12-26T09:56:38;101057.59;;;10.44;92.50
38466;BME280;24244;51.950;5.902;2022-12-26T09:59:26;101057.59;;;10.44;92.24
38466;BME280;24244;51.950;5.902;2022-12-26T10:01:54;101057.59;;;10.44;92.29
38466;BME280;24244;51.950;5.902;2022-12-26T10:04:23;101057.59;;;10.44;92.41
38466;BME280;24244;51.950;5.902;2022-12-26T10:07:03;101082.31;;;10.45;92.51
38466;BME280;24244;51.950;5.902;2022-12-26T10:09:50;101084.16;;;10.44;92.52
38466;BME280;24244;51.950;5.902;2022-12-26T10:12:31;101098.47;;;10.43;92.77
38466;BME280;24244;51.950;5.902;2022-12-26T10:15:10;101109.09;;;10.43;92.82
38466;BME280;24244;51.950;5.902;2022-12-26T10:17:42;101133.00;;;10.43;92.48
38466;BME280;24244;51.950;5.902;2022-12-26T10:20:17;101127.69;;;10.43;92.46
38466;BME280;24244;51.950;5.902;2022-12-26T10:23:15;101130.34;;;10.43;92.53
38466;BME280;24244;51.950;5.902;2022-12-26T10:25:48;101145.47;;;10.43;92.47
38466;BME280;24244;51.950;5.902;2022-12-26T10:28:27;101145.63;;;10.41;92.79
38466;BME280;24244;51.950;5.902;2022-12-26T10:30:57;101142.97;;;10.41;92.50
38466;BME280;24244;51.950;5.902;2022-12-26T10:33:32;101151.94;;;10.40;92.69
38466;BME280;24244;51.950;5.902;2022-12-26T10:36:03;101151.13;;;10.40;92.41
38466;BME280;24244;51.950;5.902;2022-12-26T10:38:34;101153.78;;;10.40;92.64
38466;BME280;24244;51.950;5.902;2022-12-26T10:41:13;101156.44;;;10.40;92.81
38466;BME280;24244;51.950;5.902;2022-12-26T10:43:44;101149.44;;;10.39;92.42
38466;BME280;24244;51.950;5.902;2022-12-26T10:46:27;101152.31;;;10.37;92.90
38466;BME280;24244;51.950;5.902;2022-12-26T10:48:58;101162.56;;;10.40;92.56
38466;BME280;24244;51.950;5.902;2022-12-26T10:51:26;101164.78;;;10.37;92.36
38466;BME280;24244;51.950;5.902;2022-12-26T10:53:54;101163.94;;;10.36;92.46
38466;BME280;24244;51.950;5.902;2022-12-26T10:56:22;101174.25;;;10.31;92.56
38466;BME280;24244;51.950;5.902;2022-12-26T10:59:02;101191.19;;;10.30;92.55
38466;BME280;24244;51.950;5.902;2022-12-26T11:01:32;101208.16;;;10.29;92.59
38466;BME280;24244;51.950;5.902;2022-12-26T11:04:01;101203.34;;;10.25;92.54
38466;BME280;24244;51.950;5.902;2022-12-26T11:06:32;101213.31;;;10.23;92.03
38466;BME280;24244;51.950;5.902;2022-12-26T11:09:00;101216.47;;;10.18;92.26
38466;BME280;24244;51.950;5.902;2022-12-26T11:11:29;101218.81;;;10.13;92.13
38466;BME280;24244;51.950;5.902;2022-12-26T11:14:38;101227.47;;;10.07;91.67
38466;BME280;24244;51.950;5.902;2022-12-26T11:17:10;101238.59;;;10.02;91.46
38466;BME280;24244;51.950;5.902;2022-12-26T11:19:41;101227.66;;;9.97;91.54
38466;BME280;24244;51.950;5.902;2022-12-26T11:22:19;101237.59;;;9.95;91.48
38466;BME280;24244;51.950;5.902;2022-12-26T11:27:52;101261.88;;;9.84;90.91
38466;BME280;24244;51.950;5.902;2022-12-26T11:30:30;101253.41;;;9.80;90.64
38466;BME280;24244;51.950;5.902;2022-12-26T11:33:15;101253.41;;;9.80;90.30
38466;BME280;24244;51.950;5.902;2022-12-26T11:35:47;101245.13;;;9.75;90.33
38466;BME280;24244;51.950;5.902;2022-12-26T11:38:17;101263.88;;;9.74;90.40
38466;BME280;24244;51.950;5.902;2022-12-26T11:41:11;101269.69;;;9.69;89.90
38466;BME280;24244;51.950;5.902;2022-12-26T11:44:02;101272.19;;;9.71;90.02
38466;BME280;24244;51.950;5.902;2022-12-26T11:46:45;101281.97;;;9.70;90.13
38466;BME280;24244;51.950;5.902;2022-12-26T11:49:19;101281.97;;;9.70;89.96
38466;BME280;24244;51.950;5.902;2022-12-26T11:51:50;101282.97;;;9.69;89.59
38466;BME280;24244;51.950;5.902;2022-12-26T11:54:28;101287.59;;;9.67;89.81
38466;BME280;24244;51.950;5.902;2022-12-26T11:57:14;101298.41;;;9.66;89.46
38466;BME280;24244;51.950;5.902;2022-12-26T11:59:42;101285.63;;;9.61;89.18
38466;BME280;24244;51.950;5.902;2022-12-26T12:02:17;101285.97;;;9.58;89.28
38466;BME280;24244;51.950;5.902;2022-12-26T12:04:46;101302.22;;;9.55;89.29
38466;BME280;24244;51.950;5.902;2022-12-26T12:07:26;101297.41;;;9.51;88.78
38466;BME280;24244;51.950;5.902;2022-12-26T12:09:59;101297.91;;;9.46;88.51
38466;BME280;24244;51.950;5.902;2022-12-26T12:12:36;101302.72;;;9.42;88.34
38466;BME280;24244;51.950;5.902;2022-12-26T12:15:09;101296.06;;;9.38;88.51
38466;BME280;24244;51.950;5.902;2022-12-26T12:17:47;101298.91;;;9.37;88.46
38466;BME280;24244;51.950;5.902;2022-12-26T12:20:25;101298.25;;;9.35;88.17
38466;BME280;24244;51.950;5.902;2022-12-26T12:23:08;101291.59;;;9.31;87.98
38466;BME280;24244;51.950;5.902;2022-12-26T12:25:46;101299.06;;;9.27;87.96
38466;BME280;24244;51.950;5.902;2022-12-26T12:28:29;101305.19;;;9.28;88.36
38466;BME280;24244;51.950;5.902;2022-12-26T12:31:00;101314.31;;;9.25;87.63
38466;BME280;24244;51.950;5.902;2022-12-26T12:33:43;101311.81;;;9.24;87.84
38466;BME280;24244;51.950;5.902;2022-12-26T12:36:17;101317.94;;;9.24;87.73
38466;BME280;24244;51.950;5.902;2022-12-26T12:39:01;101310.50;;;9.20;87.65
38466;BME280;24244;51.950;5.902;2022-12-26T12:41:52;101319.59;;;9.17;87.70
38466;BME280;24244;51.950;5.902;2022-12-26T12:44:26;101326.91;;;9.15;87.58
38466;BME280;24244;51.950;5.902;2022-12-26T12:47:03;101329.72;;;9.14;87.67
38466;BME280;24244;51.950;5.902;2022-12-26T12:49:44;101330.03;;;9.11;87.21
38466;BME280;24244;51.950;5.902;2022-12-26T12:52:22;101328.69;;;9.07;87.18
38466;BME280;24244;51.950;5.902;2022-12-26T12:58:08;101337.16;;;9.02;87.27
38466;BME280;24244;51.950;5.902;2022-12-26T13:00:41;101335.31;;;9.02;87.34
38466;BME280;24244;51.950;5.902;2022-12-26T13:03:12;101341.63;;;9.01;87.37
38466;BME280;24244;51.950;5.902;2022-12-26T13:05:47;101345.25;;;9.00;87.54
38466;BME280;24244;51.950;5.902;2022-12-26T13:08:19;101350.88;;;8.97;87.17
38466;BME280;24244;51.950;5.902;2022-12-26T13:10:51;101352.69;;;8.97;87.50
38466;BME280;24244;51.950;5.902;2022-12-26T13:13:23;101353.03;;;8.94;87.10
38466;BME280;24244;51.950;5.902;2022-12-26T13:15:56;101354.19;;;8.91;87.17
38466;BME280;24244;51.950;5.902;2022-12-26T13:18:28;101356.81;;;8.91;87.25
38466;BME280;24244;51.950;5.902;2022-12-26T13:21:03;101356.00;;;8.91;87.49
38466;BME280;24244;51.950;5.902;2022-12-26T13:23:35;101359.78;;;8.88;87.20
38466;BME280;24244;51.950;5.902;2022-12-26T13:26:24;101370.38;;;8.88;87.12
38466;BME280;24244;51.950;5.902;2022-12-26T13:28:58;101369.59;;;8.88;87.25
38466;BME280;24244;51.950;5.902;2022-12-26T13:31:30;101373.22;;;8.87;87.06
38466;BME280;24244;51.950;5.902;2022-12-26T13:33:58;101362.09;;;8.83;86.59
38466;BME280;24244;51.950;5.902;2022-12-26T13:36:36;101369.69;;;8.78;86.61
38466;BME280;24244;51.950;5.902;2022-12-26T13:39:32;101376.28;;;8.74;86.63
38466;BME280;24244;51.950;5.902;2022-12-26T13:42:04;101388.22;;;8.70;86.54
38466;BME280;24244;51.950;5.902;2022-12-26T13:48:55;101388.69;;;8.66;86.57
38466;BME280;24244;51.950;5.902;2022-12-26T13:51:48;101400.59;;;8.61;86.50